sensor_id;sensor_type;location;lat;lon;timestamp;pressure;altitude;pressure_sealevel;temperature;humidity
36980;BME280;22891;50.562;7.272;2023-05-07T00:02:04;100816.00;;;22.05;100.00
36980;BME280;22891;50.562;7.272;2023-05-07T00:04:30;100815.00;;;22.04;100.00
36980;BME280;22891;50.562;7.272;2023-05-07T00:07:02;100817.00;;;22.04;100.00
36980;BME280;22891;50.562;7.272;2023-05-07T00:09:28;100825.00;;;22.04;100.00
36980;BME280;22891;50.562;7.272;2023-05-07T00:11:53;100816.00;;;22.05;100.00
36980;BME280;22891;50.562;7.272;2023-05-07T00:14:19;100813.00;;;22.03;100.00
36980;BME280;22891;50.562;7.272;2023-05-07T00:16:46;100820.00;;;22.04;100.00
36980;BME280;22891;50.562;7.272;2023-05-07T00:19:12;100824.00;;;22.03;100.00
36980;BME280;22891;50.562;7.272;2023-05-07T00:21:37;100824.00;;;22.04;100.00
36980;BME280;22891;50.562;7.272;2023-05-07T00:24:04;100832.00;;;22.03;100.00
36980;BME280;22891;50.562;7.272;2023-05-07T00:26:29;100824.00;;;22.02;100.00
36980;BME280;22891;50.562;7.272;2023-05-07T00:28:55;100824.00;;;22.02;100.00
36980;BME280;22891;50.562;7.272;2023-05-07T00:31:21;100826.00;;;22.01;100.00
36980;BME280;22891;50.562;7.272;2023-05-07T00:33:47;100829.00;;;22.02;100.00
36980;BME280;22891;50.562;7.272;2023-05-07T00:36:13;100836.00;;;22.01;100.00
36980;BME280;22891;50.562;7.272;2023-05-07T00:38:38;100831.00;;;22.01;100.00
36980;BME280;22891;50.562;7.272;2023-05-07T00:41:04;100822.00;;;21.99;100.00
36980;BME280;22891;50.562;7.272;2023-05-07T00:43:30;100835.00;;;22.00;100.00
36980;BME280;22891;50.562;7.272;2023-05-07T00:45:57;100821.00;;;22.00;100.00
36980;BME280;22891;50.562;7.272;2023-05-07T00:48:23;100815.00;;;22.00;100.00
36980;BME280;22891;50.562;7.272;2023-05-07T00:50:50;100812.00;;;21.98;100.00
36980;BME280;22891;50.562;7.272;2023-05-07T00:53:16;100820.00;;;22.00;100.00
36980;BME280;22891;50.562;7.272;2023-05-07T00:55:41;100818.00;;;21.98;100.00
36980;BME280;22891;50.562;7.272;2023-05-07T00:58:07;100813.00;;;21.99;100.00
36980;BME280;22891;50.562;7.272;2023-05-07T01:00:33;100816.00;;;21.99;100.00
36980;BME280;22891;50.562;7.272;2023-05-07T01:02:59;100815.00;;;21.98;100.00
36980;BME280;22891;50.562;7.272;2023-05-07T01:05:26;100803.00;;;21.97;100.00
36980;BME280;22891;50.562;7.272;2023-05-07T01:07:53;100806.00;;;21.96;100.00
36980;BME280;22891;50.562;7.272;2023-05-07T01:10:21;100797.00;;;21.97;100.00
36980;BME280;22891;50.562;7.272;2023-05-07T01:12:48;100795.00;;;21.96;100.00
36980;BME280;22891;50.562;7.272;2023-05-07T01:15:15;100798.00;;;21.96;100.00
36980;BME280;22891;50.562;7.272;2023-05-07T01:17:42;100794.00;;;21.95;100.00
36980;BME280;22891;50.562;7.272;2023-05-07T01:20:09;100790.00;;;21.94;100.00
36980;BME280;22891;50.562;7.272;2023-05-07T01:22:39;100793.00;;;21.96;100.00
36980;BME280;22891;50.562;7.272;2023-05-07T01:25:06;100789.00;;;21.95;100.00
36980;BME280;22891;50.562;7.272;2023-05-07T01:27:35;100791.00;;;21.95;100.00
36980;BME280;22891;50.562;7.272;2023-05-07T01:30:06;100788.00;;;21.95;100.00
36980;BME280;22891;50.562;7.272;2023-05-07T01:32:40;100789.00;;;21.95;100.00
36980;BME280;22891;50.562;7.272;2023-05-07T01:35:11;100791.00;;;21.93;100.00
36980;BME280;22891;50.562;7.272;2023-05-07T01:37:38;100788.00;;;21.93;100.00
36980;BME280;22891;50.562;7.272;2023-05-07T01:42:30;100786.00;;;21.92;100.00
36980;BME280;22891;50.562;7.272;2023-05-07T01:44:56;100780.00;;;21.92;100.00
36980;BME280;22891;50.562;7.272;2023-05-07T01:47:23;100784.00;;;21.92;100.00
36980;BME280;22891;50.562;7.272;2023-05-07T01:49:49;100787.00;;;21.91;100.00
36980;BME280;22891;50.562;7.272;2023-05-07T01:52:15;100788.00;;;21.90;100.00
36980;BME280;22891;50.562;7.272;2023-05-07T01:54:41;100793.00;;;21.91;100.00
36980;BME280;22891;50.562;7.272;2023-05-07T01:57:07;100804.00;;;21.90;100.00
36980;BME280;22891;50.562;7.272;2023-05-07T01:59:32;100799.00;;;21.90;100.00
36980;BME280;22891;50.562;7.272;2023-05-07T02:01:58;100804.00;;;21.90;100.00
36980;BME280;22891;50.562;7.272;2023-05-07T02:04:24;100800.00;;;21.87;100.00
36980;BME280;22891;50.562;7.272;2023-05-07T02:06:50;100802.00;;;21.88;100.00
36980;BME280;22891;50.562;7.272;2023-05-07T02:09:15;100798.00;;;21.88;100.00
36980;BME280;22891;50.562;7.272;2023-05-07T02:11:41;100798.00;;;21.86;100.00
36980;BME280;22891;50.562;7.272;2023-05-07T02:14:07;100797.00;;;21.87;100.00
36980;BME280;22891;50.562;7.272;2023-05-07T02:16:32;100794.00;;;21.87;100.00
36980;BME280;22891;50.562;7.272;2023-05-07T02:18:58;100793.00;;;21.86;100.00
36980;BME280;22891;50.562;7.272;2023-05-07T02:21:24;100796.00;;;21.86;100.00
36980;BME280;22891;50.562;7.272;2023-05-07T02:23:50;100793.00;;;21.85;100.00
36980;BME280;22891;50.562;7.272;2023-05-07T02:26:16;100787.00;;;21.78;100.00
36980;BME280;22891;50.562;7.272;2023-05-07T02:28:42;100787.00;;;21.75;100.00
36980;BME280;22891;50.562;7.272;2023-05-07T02:31:08;100778.00;;;21.72;100.00
36980;BME280;22891;50.562;7.272;2023-05-07T02:33:33;100780.00;;;21.41;100.00
36980;BME280;22891;50.562;7.272;2023-05-07T02:36:08;100777.00;;;21.15;100.00
36980;BME280;22891;50.562;7.272;2023-05-07T02:38:34;100774.00;;;21.38;100.00
36980;BME280;22891;50.562;7.272;2023-05-07T02:41:00;100776.00;;;21.58;100.00
36980;BME280;22891;50.562;7.272;2023-05-07T02:43:25;100783.00;;;21.66;100.00
36980;BME280;22891;50.562;7.272;2023-05-07T02:46:04;100782.00;;;21.70;100.00
36980;BME280;22891;50.562;7.272;2023-05-07T02:48:31;100793.00;;;21.73;100.00
36980;BME280;22891;50.562;7.272;2023-05-07T02:50:57;100787.00;;;21.72;100.00
36980;BME280;22891;50.562;7.272;2023-05-07T02:53:23;100794.00;;;21.73;100.00
36980;BME280;22891;50.562;7.272;2023-05-07T02:55:52;100784.00;;;21.73;100.00
36980;BME280;22891;50.562;7.272;2023-05-07T02:58:18;100784.00;;;21.73;100.00
36980;BME280;22891;50.562;7.272;2023-05-07T03:00:44;100780.00;;;21.74;100.00
36980;BME280;22891;50.562;7.272;2023-05-07T03:03:10;100779.00;;;21.72;100.00
36980;BME280;22891;50.562;7.272;2023-05-07T03:05:36;100773.00;;;21.73;100.00
36980;BME280;22891;50.562;7.272;2023-05-07T03:08:02;100768.00;;;21.73;100.00
36980;BME280;22891;50.562;7.272;2023-05-07T03:10:29;100769.00;;;21.73;100.00
36980;BME280;22891;50.562;7.272;2023-05-07T03:12:55;100775.00;;;21.74;100.00
36980;BME280;22891;50.562;7.272;2023-05-07T03:15:21;100774.00;;;21.73;100.00
36980;BME280;22891;50.562;7.272;2023-05-07T03:17:47;100771.00;;;21.73;100.00
36980;BME280;22891;50.562;7.272;2023-05-07T03:20:14;100770.00;;;21.73;100.00
36980;BME280;22891;50.562;7.272;2023-05-07T03:22:39;100766.00;;;21.73;100.00
36980;BME280;22891;50.562;7.272;2023-05-07T03:25:06;100762.00;;;21.72;100.00
36980;BME280;22891;50.562;7.272;2023-05-07T03:27:35;100775.00;;;21.72;100.00
36980;BME280;22891;50.562;7.272;2023-05-07T03:30:01;100766.00;;;21.72;100.00
36980;BME280;22891;50.562;7.272;2023-05-07T03:32:26;100768.00;;;21.73;100.00
36980;BME280;22891;50.562;7.272;2023-05-07T03:34:52;100766.00;;;21.72;100.00
36980;BME280;22891;50.562;7.272;2023-05-07T03:37:18;100772.00;;;21.72;100.00
36980;BME280;22891;50.562;7.272;2023-05-07T03:39:44;100772.00;;;21.72;100.00
36980;BME280;22891;50.562;7.272;2023-05-07T03:42:10;100772.00;;;21.72;100.00
36980;BME280;22891;50.562;7.272;2023-05-07T03:44:35;100764.00;;;21.71;100.00
36980;BME280;22891;50.562;7.272;2023-05-07T03:47:02;100768.00;;;21.71;100.00
36980;BME280;22891;50.562;7.272;2023-05-07T03:49:28;100770.00;;;21.71;100.00
36980;BME280;22891;50.562;7.272;2023-05-07T03:51:53;100771.00;;;21.71;100.00
36980;BME280;22891;50.562;7.272;2023-05-07T03:54:19;100770.00;;;21.71;100.00
36980;BME280;22891;50.562;7.272;2023-05-07T03:56:45;100773.00;;;21.69;100.00
36980;BME280;22891;50.562;7.272;2023-05-07T03:59:12;100772.00;;;21.70;100.00
36980;BME280;22891;50.562;7.272;2023-05-07T04:01:38;100776.00;;;21.69;100.00
36980;BME280;22891;50.562;7.272;2023-05-07T04:04:04;100783.00;;;21.69;100.00
36980;BME280;22891;50.562;7.272;2023-05-07T04:06:30;100782.00;;;21.68;100.00
36980;BME280;22891;50.562;7.272;2023-05-07T04:08:56;100776.00;;;21.68;100.00
36980;BME280;22891;50.562;7.272;2023-05-07T04:11:22;100782.00;;;21.68;100.00
36980;BME280;22891;50.562;7.272;2023-05-07T04:13:47;100788.00;;;21.68;100.00
36980;BME280;22891;50.562;7.272;2023-05-07T04:16:13;100790.00;;;21.68;100.00
36980;BME280;22891;50.562;7.272;2023-05-07T04:18:39;100796.00;;;21.67;100.00
36980;BME280;22891;50.562;7.272;2023-05-07T04:21:05;100790.00;;;21.66;100.00
36980;BME280;22891;50.562;7.272;2023-05-07T04:23:31;100795.00;;;21.66;100.00
36980;BME280;22891;50.562;7.272;2023-05-07T04:25:56;100798.00;;;21.66;100.00
36980;BME280;22891;50.562;7.272;2023-05-07T04:28:24;100788.00;;;21.65;100.00
36980;BME280;22891;50.562;7.272;2023-05-07T04:30:49;100798.00;;;21.65;100.00
36980;BME280;22891;50.562;7.272;2023-05-07T04:33:15;100791.00;;;21.66;100.00
36980;BME280;22891;50.562;7.272;2023-05-07T04:35:44;100796.00;;;21.65;100.00
36980;BME280;22891;50.562;7.272;2023-05-07T04:38:10;100799.00;;;21.66;100.00
36980;BME280;22891;50.562;7.272;2023-05-07T04:40:36;100790.00;;;21.65;100.00
36980;BME280;22891;50.562;7.272;2023-05-07T04:43:02;100788.00;;;21.64;100.00
36980;BME280;22891;50.562;7.272;2023-05-07T04:45:28;100786.00;;;21.64;100.00
36980;BME280;22891;50.562;7.272;2023-05-07T04:47:53;100792.00;;;21.64;100.00
36980;BME280;22891;50.562;7.272;2023-05-07T04:50:19;100797.00;;;21.64;100.00
36980;BME280;22891;50.562;7.272;2023-05-07T04:52:45;100801.00;;;21.63;100.00
36980;BME280;22891;50.562;7.272;2023-05-07T04:55:11;100795.00;;;21.63;100.00
36980;BME280;22891;50.562;7.272;2023-05-07T04:57:37;100799.00;;;21.62;100.00
36980;BME280;22891;50.562;7.272;2023-05-07T05:00:06;100797.00;;;21.61;100.00
36980;BME280;22891;50.562;7.272;2023-05-07T05:02:34;100795.00;;;21.61;100.00
36980;BME280;22891;50.562;7.272;2023-05-07T05:05:00;100794.00;;;21.62;100.00
36980;BME280;22891;50.562;7.272;2023-05-07T05:07:28;100795.00;;;21.63;100.00
36980;BME280;22891;50.562;7.272;2023-05-07T05:09:54;100794.00;;;21.61;100.00
36980;BME280;22891;50.562;7.272;2023-05-07T05:12:21;100790.00;;;21.62;100.00
36980;BME280;22891;50.562;7.272;2023-05-07T05:14:46;100798.00;;;21.62;100.00
36980;BME280;22891;50.562;7.272;2023-05-07T05:17:12;100799.00;;;21.62;100.00
36980;BME280;22891;50.562;7.272;2023-05-07T05:19:38;100800.00;;;21.63;100.00
36980;BME280;22891;50.562;7.272;2023-05-07T05:22:04;100803.00;;;21.63;100.00
36980;BME280;22891;50.562;7.272;2023-05-07T05:24:30;100801.00;;;21.63;100.00
36980;BME280;22891;50.562;7.272;2023-05-07T05:26:56;100806.00;;;21.63;100.00
36980;BME280;22891;50.562;7.272;2023-05-07T05:29:22;100815.00;;;21.64;100.00
36980;BME280;22891;50.562;7.272;2023-05-07T05:31:48;100813.00;;;21.64;100.00
36980;BME280;22891;50.562;7.272;2023-05-07T05:34:14;100804.00;;;21.65;100.00
36980;BME280;22891;50.562;7.272;2023-05-07T05:36:39;100814.00;;;21.65;100.00
36980;BME280;22891;50.562;7.272;2023-05-07T05:39:05;100804.00;;;21.64;100.00
36980;BME280;22891;50.562;7.272;2023-05-07T05:41:31;100811.00;;;21.65;100.00
36980;BME280;22891;50.562;7.272;2023-05-07T05:43:57;100805.00;;;21.64;100.00
36980;BME280;22891;50.562;7.272;2023-05-07T05:46:22;100794.00;;;21.53;100.00
36980;BME280;22891;50.562;7.272;2023-05-07T05:48:48;100797.00;;;21.46;100.00
36980;BME280;22891;50.562;7.272;2023-05-07T05:51:14;100796.00;;;21.43;100.00
36980;BME280;22891;50.562;7.272;2023-05-07T05:53:40;100789.00;;;21.38;100.00
36980;BME280;22891;50.562;7.272;2023-05-07T05:56:06;100790.00;;;21.37;100.00
36980;BME280;22891;50.562;7.272;2023-05-07T05:58:32;100786.00;;;21.28;100.00
36980;BME280;22891;50.562;7.272;2023-05-07T06:00:58;100777.00;;;21.20;100.00
36980;BME280;22891;50.562;7.272;2023-05-07T06:03:24;100782.00;;;21.41;100.00
36980;BME280;22891;50.562;7.272;2023-05-07T06:05:49;100794.00;;;21.53;100.00
36980;BME280;22891;50.562;7.272;2023-05-07T06:08:15;100798.00;;;21.58;100.00
36980;BME280;22891;50.562;7.272;2023-05-07T06:10:41;100796.00;;;21.61;100.00
36980;BME280;22891;50.562;7.272;2023-05-07T06:13:07;100793.00;;;21.64;100.00
36980;BME280;22891;50.562;7.272;2023-05-07T06:15:33;100794.00;;;21.63;100.00
